Pagrindinis puslapis
METAR-TAF:

METAR-TAF

Oro uostai :

Chicago Executive Airport

Wheeling-Prospect Heights, Ilinojus, Jungtinės Amerikos Valstijos

platuma: 42-07-15N, ilguma: 087-54-17W, Aukštis: 197 m

Dabartinis oras

Ataskaita buvo paskelbta 21 minutes, ne 14:52 UTC
Vėjas 7 kt iš Pietų su gūsio iki 16 kt
Temperatūra 18°C
Drėgmė 49%
Slėgis 1030 hPa
Matomumas: 16.1 km
Giedras dangus

METAR: KPWK 211452Z 17007G16KT 10SM CLR 18/07 A3042 RMK AO2 SLP300 T01780067 50001

Laikas: 10:13 (15:13 UTC)


TAF: trūkstamas

Orai ataskaitas ir orų prognozės (METAR, TAF).

turimą stotys yra geltonos ir raudonos taškus žemėlapyje.

Perkelti pele per norėdami pamatyti stoties vardą.

Tada spustelėkite, norėdami matyti oro stebėjimo ir prognozės.

Norėdami pakeisti žemėlapį: spustelėkite ant žalios mygtukų su juodo kryžiaus žemyn,; žalią mygtuką su brūkšneliu, jei norite nutolinti; arba žalių rodyklių gretimoms žemėlapius.


METAR-TAF: